createdAt,value
2024-05-09T00:00:45.915Z,99216.19
2024-05-09T00:05:47.632Z,99217.91
2024-05-09T00:10:49.547Z,99202.38
2024-05-09T00:15:51.236Z,99207.88
2024-05-09T00:20:53.129Z,99223.34
2024-05-09T00:25:54.765Z,99205.03
2024-05-09T00:30:56.354Z,99208.53
2024-05-09T00:35:57.960Z,99207.06
2024-05-09T00:40:59.604Z,99198.03
2024-05-09T00:46:02.102Z,99200.69
2024-05-09T00:51:04.901Z,99195.22
2024-05-09T00:56:09.750Z,99195.56
2024-05-09T01:01:11.472Z,99196.84
2024-05-09T01:06:13.123Z,99186.81
2024-05-09T01:11:16.464Z,99203.56
2024-05-09T01:16:18.087Z,99193.56
2024-05-09T01:21:20.201Z,99190.38
2024-05-09T01:26:22.382Z,99201.66
2024-05-09T01:31:24.039Z,99198.31
2024-05-09T01:36:25.914Z,99205.66
2024-05-09T01:41:27.744Z,99203.31
2024-05-09T01:46:29.872Z,99199.47
2024-05-09T01:51:31.922Z,99205.81
2024-05-09T01:56:33.919Z,99207.94
2024-05-09T02:01:55.616Z,99206.28
2024-05-09T02:06:57.260Z,99204.44
2024-05-09T02:11:59.055Z,99209.78
2024-05-09T02:17:00.699Z,99204.50
2024-05-09T02:22:02.608Z,99210.13
2024-05-09T02:27:04.767Z,99204.28
2024-05-09T02:32:06.968Z,99210.28
2024-05-09T02:37:08.638Z,99200.63
2024-05-09T02:42:10.520Z,99192.47
2024-05-09T02:47:12.739Z,99191.50
2024-05-09T02:52:18.648Z,99193.91
2024-05-09T02:57:20.513Z,99201.91
2024-05-09T03:02:22.232Z,99201.44
2024-05-09T03:07:23.881Z,99201.34
2024-05-09T03:12:25.501Z,99199.53
2024-05-09T03:17:27.705Z,99200.19
2024-05-09T03:22:29.931Z,99203.28
2024-05-09T03:27:31.829Z,99203.69
2024-05-09T03:32:33.877Z,99208.31
2024-05-09T03:37:35.978Z,99212.16
2024-05-09T03:42:41.620Z,99205.06
2024-05-09T03:47:43.750Z,99196.59
2024-05-09T03:52:45.557Z,99194.72
2024-05-09T03:57:47.149Z,99205.25
2024-05-09T04:02:49.483Z,99201.03
2024-05-09T04:07:51.303Z,99209.56
2024-05-09T04:12:53.348Z,99212.06
2024-05-09T04:17:56.143Z,99204.78
2024-05-09T04:22:57.971Z,99216.22
2024-05-09T04:27:59.700Z,99206.59
2024-05-09T04:33:02.436Z,99204.53
2024-05-09T04:38:05.089Z,99220.53
2024-05-09T04:43:13.900Z,99218.84
2024-05-09T04:48:17.119Z,99233.66
2024-05-09T04:53:19.215Z,99230.94
2024-05-09T04:58:21.139Z,99239.06
2024-05-09T05:03:23.075Z,99245.31
2024-05-09T05:08:24.860Z,99236.06
2024-05-09T05:13:37.949Z,99243.13
2024-05-09T05:18:41.239Z,99245.63
2024-05-09T05:23:43.154Z,99246.09
2024-05-09T05:28:45.100Z,99253.84
2024-05-09T05:33:48.647Z,99250.94
2024-05-09T05:38:50.736Z,99253.09
2024-05-09T05:43:52.780Z,99246.97
2024-05-09T05:48:54.459Z,99253.66
2024-05-09T05:53:56.348Z,99229.13
2024-05-09T05:58:58.210Z,99255.84
2024-05-09T06:03:59.974Z,99256.66
2024-05-09T06:09:01.655Z,99259.59
2024-05-09T06:14:05.404Z,99262.84
2024-05-09T06:19:07.146Z,99261.94
2024-05-09T06:24:08.754Z,99257.28
2024-05-09T06:29:10.439Z,99255.59
2024-05-09T06:34:12.447Z,99253.25
2024-05-09T06:39:14.435Z,99257.13
2024-05-09T06:44:16.269Z,99260.75
2024-05-09T06:49:18.248Z,99251.91
2024-05-09T06:54:19.903Z,99239.63
2024-05-09T06:59:21.731Z,99239.59
2024-05-09T07:04:23.754Z,99241.25
2024-05-09T07:09:25.639Z,99247.47
2024-05-09T07:14:28.062Z,99242.44
2024-05-09T07:19:30.014Z,99234.91
2024-05-09T07:24:31.713Z,99237.56
2024-05-09T07:29:36.149Z,99231.81
2024-05-09T07:34:39.099Z,99226.28
2024-05-09T07:39:41.258Z,99227.09
2024-05-09T07:44:43.397Z,99223.53
2024-05-09T07:51:32.515Z,99223.91
2024-05-09T07:55:07.254Z,99226.81
2024-05-09T08:00:14.243Z,99205.19
2024-05-09T08:05:16.177Z,99213.53
2024-05-09T08:10:22.171Z,99210.47
2024-05-09T08:15:28.864Z,99204.44
2024-05-09T08:20:35.131Z,99208.47
2024-05-09T08:25:37.161Z,99205.22
2024-05-09T08:30:39.016Z,99210.81
2024-05-09T08:35:40.866Z,99202.22
2024-05-09T08:40:42.841Z,99204.25
2024-05-09T08:45:46.127Z,99196.09
2024-05-09T08:50:52.053Z,99203.59
2024-05-09T08:55:55.385Z,99184.13
2024-05-09T09:00:57.927Z,99193.19
2024-05-09T09:06:06.736Z,99192.34
2024-05-09T09:11:08.455Z,99190.16
2024-05-09T09:16:10.197Z,99191.03
2024-05-09T09:21:11.939Z,99183.03
2024-05-09T09:26:17.236Z,99178.66
2024-05-09T09:31:19.579Z,99170.44
2024-05-09T09:36:21.244Z,99178.41
2024-05-09T09:41:27.524Z,99164.34
2024-05-09T09:46:30.479Z,99171.81
2024-05-09T09:51:33.595Z,99169.28
2024-05-09T09:56:38.715Z,99171.47
2024-05-09T10:01:44.920Z,99180.81
2024-05-09T10:06:53.090Z,99179.28
2024-05-09T10:11:59.950Z,99172.59
2024-05-09T10:17:05.751Z,99163.03
2024-05-09T10:22:10.630Z,99160.72
2024-05-09T10:27:12.546Z,99146.44
2024-05-09T10:32:14.516Z,99159.03
2024-05-09T10:37:16.275Z,99156.34
2024-05-09T10:42:19.498Z,99152.06
2024-05-09T10:47:21.612Z,99143.31
2024-05-09T10:52:24.555Z,99133.88
2024-05-09T10:57:27.575Z,99124.91
2024-05-09T11:02:29.636Z,99125.72
2024-05-09T11:07:32.014Z,99120.22
2024-05-09T11:12:33.717Z,99112.13
2024-05-09T11:17:38.245Z,99108.66
2024-05-09T11:22:39.884Z,99105.16
2024-05-09T11:27:42.382Z,99102.28
2024-05-09T11:32:44.361Z,99091.34
2024-05-09T11:37:46.641Z,99081.47
2024-05-09T11:42:50.009Z,99085.28
2024-05-09T11:47:53.620Z,99075.84
2024-05-09T11:52:55.289Z,99080.53
2024-05-09T11:57:57.561Z,99063.13
2024-05-09T12:02:59.794Z,99060.16
2024-05-09T12:08:02.585Z,99054.59
2024-05-09T12:13:06.289Z,99060.38
2024-05-09T12:18:09.138Z,99049.78
2024-05-09T12:23:10.998Z,99043.28
2024-05-09T12:28:12.743Z,99047.13
2024-05-09T12:33:14.867Z,99048.72
2024-05-09T12:38:16.620Z,99039.41
2024-05-09T12:43:18.455Z,99039.09
2024-05-09T12:48:20.274Z,99031.78
2024-05-09T12:53:21.888Z,99025.13
2024-05-09T12:58:23.706Z,99020.38
2024-05-09T13:03:25.485Z,99016.44
2024-05-09T13:08:27.328Z,99015.66
2024-05-09T13:13:29.377Z,99004.56
2024-05-09T13:18:31.107Z,98999.31
2024-05-09T13:23:32.891Z,98989.34
2024-05-09T13:28:34.879Z,98987.41
2024-05-09T13:33:36.884Z,98978.41
2024-05-09T13:38:38.596Z,98988.06
2024-05-09T13:43:40.214Z,98974.31
2024-05-09T13:48:42.111Z,98958.00
2024-05-09T13:53:43.795Z,98972.34
2024-05-09T13:58:45.572Z,98965.28
2024-05-09T14:03:47.275Z,98963.91
2024-05-09T14:08:49.347Z,98956.88
2024-05-09T14:13:51.381Z,98941.09
2024-05-09T14:18:53.250Z,98933.19
2024-05-09T14:23:54.938Z,98934.22
2024-05-09T14:28:56.997Z,98922.09
2024-05-09T14:33:59.046Z,98922.50
2024-05-09T14:39:00.764Z,98912.78
2024-05-09T14:44:02.751Z,98901.53
2024-05-09T14:49:05.733Z,98898.16
2024-05-09T14:54:08.132Z,98903.03
2024-05-09T14:59:09.847Z,98904.69
2024-05-09T15:04:11.589Z,98894.41
2024-05-09T15:09:13.702Z,98896.31
2024-05-09T15:14:15.903Z,98890.59
2024-05-09T15:19:17.816Z,98879.75
2024-05-09T15:24:20.087Z,98879.00
2024-05-09T15:29:21.800Z,98871.94
2024-05-09T15:34:23.421Z,98871.81
2024-05-09T15:39:25.389Z,98868.53
2024-05-09T15:44:26.953Z,98861.44
2024-05-09T15:49:28.654Z,98854.19
2024-05-09T15:54:30.650Z,98851.78
2024-05-09T15:59:33.075Z,98861.97
2024-05-09T16:04:34.812Z,98859.47
2024-05-09T16:09:37.186Z,98860.19
2024-05-09T16:14:39.314Z,98863.19
2024-05-09T16:19:41.322Z,98863.13
2024-05-09T16:24:43.089Z,98853.75
2024-05-09T16:29:45.003Z,98856.09
2024-05-09T16:34:48.349Z,98845.78
2024-05-09T16:39:50.035Z,98848.28
2024-05-09T16:44:51.753Z,98849.63
2024-05-09T16:49:53.420Z,98839.91
2024-05-09T16:54:55.429Z,98836.25
2024-05-09T16:59:57.428Z,98837.63
2024-05-09T17:04:59.148Z,98822.81
2024-05-09T17:10:00.881Z,98836.09
2024-05-09T17:15:02.647Z,98833.72
2024-05-09T17:20:08.255Z,98832.25
2024-05-09T17:25:11.472Z,98808.81
2024-05-09T17:30:21.184Z,98824.41
2024-05-09T17:35:31.234Z,98821.91
2024-05-09T17:40:36.182Z,98832.09
2024-05-09T17:45:40.859Z,98833.03
2024-05-09T17:50:43.400Z,98834.19
2024-05-09T17:55:45.106Z,98847.00
2024-05-09T18:00:46.972Z,98838.03
2024-05-09T18:05:48.829Z,98841.53
2024-05-09T18:10:52.122Z,98842.47
2024-05-09T18:15:55.080Z,98836.91
2024-05-09T18:20:56.746Z,98838.16
2024-05-09T18:25:58.419Z,98832.19
2024-05-09T18:31:00.110Z,98842.63
2024-05-09T18:36:01.957Z,98840.25
2024-05-09T18:41:03.596Z,98847.84
2024-05-09T18:46:05.502Z,98855.41
2024-05-09T18:51:07.235Z,98853.22
2024-05-09T18:56:09.041Z,98855.59
2024-05-09T19:01:11.343Z,98863.91
2024-05-09T19:06:13.007Z,98878.34
2024-05-09T19:11:14.622Z,98882.06
2024-05-09T19:16:16.389Z,98887.91
2024-05-09T19:21:18.053Z,98890.69
2024-05-09T19:26:19.778Z,98895.06
2024-05-09T19:31:21.462Z,98900.50
2024-05-09T19:36:29.147Z,98903.22
2024-05-09T19:41:30.827Z,98896.69
2024-05-09T19:46:32.594Z,98905.47
2024-05-09T19:51:34.246Z,98907.13
2024-05-09T19:56:35.932Z,98907.06
2024-05-09T20:01:37.726Z,98901.06
2024-05-09T20:06:40.960Z,98909.56
2024-05-09T20:11:42.786Z,98910.66
2024-05-09T20:16:44.765Z,98911.97
2024-05-09T20:21:46.382Z,98904.56
2024-05-09T20:26:48.024Z,98908.09
2024-05-09T20:31:49.671Z,98910.84
2024-05-09T20:36:51.477Z,98911.06
2024-05-09T20:41:54.259Z,98910.97
2024-05-09T20:46:55.948Z,98906.19
2024-05-09T20:51:57.899Z,98913.97
2024-05-09T20:56:59.544Z,98913.16
2024-05-09T21:02:01.204Z,98913.84
2024-05-09T21:07:02.884Z,98907.78
2024-05-09T21:12:05.000Z,98909.13
2024-05-09T21:17:06.740Z,98915.16
2024-05-09T21:22:08.403Z,98916.13
2024-05-09T21:27:10.003Z,98915.84
2024-05-09T21:32:11.588Z,98920.47
2024-05-09T21:37:13.298Z,98912.78
2024-05-09T21:42:14.922Z,98921.19
2024-05-09T21:47:16.560Z,98926.38
2024-05-09T21:52:19.412Z,98914.03
2024-05-09T21:57:21.948Z,98915.88
2024-05-09T22:02:24.132Z,98914.56
2024-05-09T22:07:26.049Z,98914.06
2024-05-09T22:12:27.996Z,98926.38
2024-05-09T22:17:30.081Z,98920.59
2024-05-09T22:22:32.043Z,98920.16
2024-05-09T22:27:34.507Z,98911.47
2024-05-09T22:32:36.626Z,98925.50
2024-05-09T22:37:38.573Z,98924.97
2024-05-09T22:42:41.747Z,98915.13
2024-05-09T22:47:43.518Z,98927.63
2024-05-09T22:52:45.195Z,98923.63
2024-05-09T22:57:47.020Z,98939.06
2024-05-09T23:02:49.024Z,98922.22
2024-05-09T23:07:50.687Z,98931.47
2024-05-09T23:12:52.810Z,98927.28
2024-05-09T23:17:55.574Z,98919.25
2024-05-09T23:22:57.680Z,98923.16
2024-05-09T23:27:59.778Z,98920.47
2024-05-09T23:33:02.047Z,98909.59
2024-05-09T23:38:04.149Z,98910.75
2024-05-09T23:43:06.349Z,98921.66
2024-05-09T23:48:08.744Z,98921.50
2024-05-09T23:53:11.218Z,98921.94
2024-05-09T23:58:13.068Z,98912.13
